»·PEaware :: CGIPQ KSNA-KCRQ

CGIPQ :: KSNA-KCRQ

FLIGHT INFORMATION

Flight Status: Arrived
Operator: Unknown
More flights by this operator :: More flights under this callsign
Pilot: Vlad D. (11271)
Aircraft: SOCATA TBM-900
(TBM9)
More flights by this aircraft type
Origin: KSNA John Wayne-Orange Co
United States
Destination: KCRQ McClellan-Palomar
United States
More flights between these airports :: More routes between these airports
Route: +
File this flight plan on PilotEdge
Remarks: FF
Altitude:
(Current/Filed)
0ft
Speed:
(Current/Filed)
0kts
Departed: 24-Mar-19 12:50 PM
Arrived: 24-Mar-19 01:11 PM
Distance/Time
Traveled:
44nm/0:21
Distance/Time
To Go:
Arrived

Flight Plot

Page will automatically refresh every two minutes.


Map Options




Map Legend


Flown Route
Filed Route
Departure Airport
Arrival Airport
Navaid (VOR, NDB)
Fix

Horizontal Profiles

Position Reports

Time Latitude Longitude Heading Altitude Ground
Speed
24-Mar-19 12:25 33.670097 -117.874504 208 52ft 0kts
24-Mar-19 12:26 33.670097 -117.874504 208 52ft 0kts
24-Mar-19 12:27 33.670097 -117.874504 208 52ft 0kts
24-Mar-19 12:28 33.670097 -117.874504 208 52ft 0kts
24-Mar-19 12:29 33.670097 -117.874504 208 52ft 0kts
24-Mar-19 12:30 33.670097 -117.874504 208 52ft 0kts
24-Mar-19 12:31 33.670097 -117.874504 208 52ft 0kts
24-Mar-19 12:32 33.670097 -117.874504 208 52ft 0kts
24-Mar-19 12:33 33.670097 -117.874504 208 52ft 0kts
24-Mar-19 12:34 33.670097 -117.874504 208 52ft 0kts
24-Mar-19 12:35 33.670097 -117.874504 208 52ft 0kts
24-Mar-19 12:36 33.670436 -117.873666 26 52ft 11kts
24-Mar-19 12:37 33.672855 -117.872144 26 49ft 8kts
24-Mar-19 12:38 33.675094 -117.870737 27 49ft 9kts
24-Mar-19 12:39 33.677062 -117.869495 28 47ft 9kts
24-Mar-19 12:40 33.677680 -117.869082 28 46ft 0kts
24-Mar-19 12:41 33.677680 -117.869082 28 46ft 0kts
24-Mar-19 12:42 33.677680 -117.869082 28 46ft 0kts
24-Mar-19 12:43 33.677680 -117.869082 28 46ft 0kts
24-Mar-19 12:44 33.678558 -117.868507 27 46ft 5kts
24-Mar-19 12:45 33.680416 -117.867538 27 42ft 7kts
24-Mar-19 12:46 33.681266 -117.866593 108 40ft 0kts
24-Mar-19 12:47 33.681084 -117.866122 116 39ft 7kts
24-Mar-19 12:48 33.680611 -117.865682 207 39ft 0kts
24-Mar-19 12:49 33.669918 -117.872591 206 191ft 114kts
24-Mar-19 12:50 33.630472 -117.871290 163 1369ft 163kts
24-Mar-19 12:51 33.588234 -117.856296 166 2215ft 171kts
24-Mar-19 12:52 33.542917 -117.832788 123 2215ft 192kts
24-Mar-19 12:53 33.515538 -117.778457 123 2732ft 195kts
24-Mar-19 12:54 33.485499 -117.719418 123 3010ft 219kts
24-Mar-19 12:55 33.453978 -117.657725 123 2999ft 215kts
24-Mar-19 12:56 33.422657 -117.597268 123 2999ft 212kts
24-Mar-19 12:57 33.380539 -117.549230 139 3000ft 210kts
24-Mar-19 12:58 33.336686 -117.502306 139 3001ft 211kts
24-Mar-19 12:59 33.292683 -117.455270 139 3000ft 211kts
24-Mar-19 13:00 33.249148 -117.408796 139 3000ft 210kts
24-Mar-19 13:01 33.205614 -117.362385 140 2978ft 205kts
24-Mar-19 13:02 33.164268 -117.317983 140 2965ft 196kts
24-Mar-19 13:03 33.131009 -117.282333 153 1685ft 124kts
24-Mar-19 13:04 33.104421 -117.282398 266 1015ft 104kts
24-Mar-19 13:05 33.125745 -117.294125 63 453ft 103kts
24-Mar-19 13:06 33.129484 -117.260700 109 626ft 134kts
24-Mar-19 13:07 33.106532 -117.257165 273 1018ft 145kts
24-Mar-19 13:08 33.107540 -117.300744 334 795ft 126kts
24-Mar-19 13:09 33.127688 -117.283520 77 312ft 85kts
24-Mar-19 13:10 33.129381 -117.273685 77 306ft 8kts
24-Mar-19 13:11 33.128535 -117.278318 259 308ft 7kts
24-Mar-19 13:12 33.129046 -117.280413 302 308ft 7kts
24-Mar-19 13:13 33.129278 -117.280944 259 309ft 0kts
24-Mar-19 13:14 33.129278 -117.280944 259 309ft 0kts
24-Mar-19 13:15 33.129278 -117.280944 259 309ft 0kts
24-Mar-19 13:16 33.129278 -117.280944 259 309ft 0kts
24-Mar-19 13:17 33.129278 -117.280944 259 309ft 0kts
24-Mar-19 13:18 33.129278 -117.280944 259 309ft 0kts

Navigation Log

Ident Type
Flight plan parsing failed, navigation log unavailable